sensor_id;sensor_type;location;lat;lon;timestamp;pressure;altitude;pressure_sealevel;temperature;humidity
20955;BME280;10636;19.390;-99.256;2022-08-02T00:02:08;78089.16;;;24.26;44.41
20955;BME280;10636;19.390;-99.256;2022-08-02T00:04:36;78090.56;;;24.27;44.49
20955;BME280;10636;19.390;-99.256;2022-08-02T00:07:05;78085.19;;;24.27;44.56
20955;BME280;10636;19.390;-99.256;2022-08-02T00:09:33;78095.91;;;24.27;44.68
20955;BME280;10636;19.390;-99.256;2022-08-02T00:12:03;78096.59;;;24.28;44.71
20955;BME280;10636;19.390;-99.256;2022-08-02T00:14:32;78101.28;;;24.27;44.21
20955;BME280;10636;19.390;-99.256;2022-08-02T00:17:00;78102.66;;;24.29;44.45
20955;BME280;10636;19.390;-99.256;2022-08-02T00:19:29;78093.84;;;24.26;44.28
20955;BME280;10636;19.390;-99.256;2022-08-02T00:22:00;78103.94;;;24.27;44.23
20955;BME280;10636;19.390;-99.256;2022-08-02T00:24:28;78112.69;;;24.28;44.69
20955;BME280;10636;19.390;-99.256;2022-08-02T00:26:57;78115.28;;;24.26;44.32
20955;BME280;10636;19.390;-99.256;2022-08-02T00:29:27;78109.22;;;24.25;44.10
20955;BME280;10636;19.390;-99.256;2022-08-02T00:31:56;78123.91;;;24.24;44.52
20955;BME280;10636;19.390;-99.256;2022-08-02T00:34:24;78125.22;;;24.23;44.05
20955;BME280;10636;19.390;-99.256;2022-08-02T00:36:53;78136.63;;;24.24;44.46
20955;BME280;10636;19.390;-99.256;2022-08-02T00:39:21;78134.63;;;24.24;44.21
20955;BME280;10636;19.390;-99.256;2022-08-02T00:41:52;78140.00;;;24.24;44.10
20955;BME280;10636;19.390;-99.256;2022-08-02T00:44:20;78136.63;;;24.24;44.16
20955;BME280;10636;19.390;-99.256;2022-08-02T00:46:50;78142.66;;;24.24;44.64
20955;BME280;10636;19.390;-99.256;2022-08-02T00:49:19;78141.41;;;24.25;44.80
20955;BME280;10636;19.390;-99.256;2022-08-02T00:51:47;78142.59;;;24.22;44.23
20955;BME280;10636;19.390;-99.256;2022-08-02T00:54:15;78147.94;;;24.22;44.54
20955;BME280;10636;19.390;-99.256;2022-08-02T00:56:44;78147.94;;;24.22;44.26
20955;BME280;10636;19.390;-99.256;2022-08-02T00:59:12;78153.31;;;24.22;44.55
20955;BME280;10636;19.390;-99.256;2022-08-02T01:01:41;78158.06;;;24.24;44.36
20955;BME280;10636;19.390;-99.256;2022-08-02T01:04:12;78147.94;;;24.22;44.35
20955;BME280;10636;19.390;-99.256;2022-08-02T01:06:41;78164.03;;;24.22;44.79
20955;BME280;10636;19.390;-99.256;2022-08-02T01:09:10;78168.09;;;24.23;44.78
20955;BME280;10636;19.390;-99.256;2022-08-02T01:11:38;78173.38;;;24.21;44.41
20955;BME280;10636;19.390;-99.256;2022-08-02T01:14:09;78177.34;;;24.20;44.33
20955;BME280;10636;19.390;-99.256;2022-08-02T01:16:43;78176.13;;;24.23;44.88
20955;BME280;10636;19.390;-99.256;2022-08-02T01:19:32;78184.78;;;24.22;44.57
20955;BME280;10636;19.390;-99.256;2022-08-02T01:22:15;78190.84;;;24.22;44.15
20955;BME280;10636;19.390;-99.256;2022-08-02T01:25:03;78189.34;;;24.19;44.40
20955;BME280;10636;19.390;-99.256;2022-08-02T01:27:45;78188.66;;;24.19;44.64
20955;BME280;10636;19.390;-99.256;2022-08-02T01:30:20;78193.25;;;24.16;44.61
20955;BME280;10636;19.390;-99.256;2022-08-02T01:32:54;78208.03;;;24.17;45.16
20955;BME280;10636;19.390;-99.256;2022-08-02T01:35:29;78207.34;;;24.17;45.19
20955;BME280;10636;19.390;-99.256;2022-08-02T01:38:12;78214.69;;;24.16;44.46
20955;BME280;10636;19.390;-99.256;2022-08-02T01:40:43;78234.13;;;24.17;44.50
20955;BME280;10636;19.390;-99.256;2022-08-02T01:43:13;78232.16;;;24.17;44.72
20955;BME280;10636;19.390;-99.256;2022-08-02T01:45:44;78238.81;;;24.16;45.14
20955;BME280;10636;19.390;-99.256;2022-08-02T01:48:13;78241.50;;;24.16;45.39
20955;BME280;10636;19.390;-99.256;2022-08-02T01:50:44;78250.81;;;24.15;44.92
20955;BME280;10636;19.390;-99.256;2022-08-02T01:53:15;78258.75;;;24.13;44.86
20955;BME280;10636;19.390;-99.256;2022-08-02T01:55:47;78250.44;;;24.07;45.42
20955;BME280;10636;19.390;-99.256;2022-08-02T01:58:18;78271.38;;;24.11;44.93
20955;BME280;10636;19.390;-99.256;2022-08-02T02:00:50;78270.69;;;24.10;45.53
20955;BME280;10636;19.390;-99.256;2022-08-02T02:03:23;78273.28;;;24.08;45.43
20955;BME280;10636;19.390;-99.256;2022-08-02T02:05:54;78274.66;;;24.09;45.52
20955;BME280;10636;19.390;-99.256;2022-08-02T02:08:26;78273.28;;;24.08;46.00
20955;BME280;10636;19.390;-99.256;2022-08-02T02:10:56;78281.91;;;24.07;45.98
20955;BME280;10636;19.390;-99.256;2022-08-02T02:13:26;78289.25;;;24.06;45.38
20955;BME280;10636;19.390;-99.256;2022-08-02T02:15:59;78293.13;;;24.03;45.49
20955;BME280;10636;19.390;-99.256;2022-08-02T02:18:29;78287.78;;;24.03;45.56
20955;BME280;10636;19.390;-99.256;2022-08-02T02:20:57;78285.00;;;24.01;45.66
20955;BME280;10636;19.390;-99.256;2022-08-02T02:23:27;78285.00;;;24.01;45.78
20955;BME280;10636;19.390;-99.256;2022-08-02T02:25:55;78269.97;;;23.94;46.01
20955;BME280;10636;19.390;-99.256;2022-08-02T02:28:26;78275.47;;;23.98;46.00
20955;BME280;10636;19.390;-99.256;2022-08-02T02:31:02;78283.44;;;23.96;45.83
20955;BME280;10636;19.390;-99.256;2022-08-02T02:33:34;78280.75;;;23.96;46.35
20955;BME280;10636;19.390;-99.256;2022-08-02T02:36:05;78279.38;;;23.95;46.08
20955;BME280;10636;19.390;-99.256;2022-08-02T02:38:35;78275.31;;;23.94;46.29
20955;BME280;10636;19.390;-99.256;2022-08-02T02:41:05;78275.31;;;23.94;46.49
20955;BME280;10636;19.390;-99.256;2022-08-02T02:43:34;78268.47;;;23.91;45.85
20955;BME280;10636;19.390;-99.256;2022-08-02T02:46:07;78263.63;;;23.87;46.85
20955;BME280;10636;19.390;-99.256;2022-08-02T02:48:37;78263.72;;;23.89;46.57
20955;BME280;10636;19.390;-99.256;2022-08-02T02:51:08;78261.72;;;23.90;46.66
20955;BME280;10636;19.390;-99.256;2022-08-02T02:53:38;78253.00;;;23.89;46.08
20955;BME280;10636;19.390;-99.256;2022-08-02T02:56:08;78255.00;;;23.89;46.76
20955;BME280;10636;19.390;-99.256;2022-08-02T02:58:37;78256.88;;;23.86;46.57
20955;BME280;10636;19.390;-99.256;2022-08-02T03:01:08;78262.94;;;23.87;46.37
20955;BME280;10636;19.390;-99.256;2022-08-02T03:03:58;78261.47;;;23.84;46.77
20955;BME280;10636;19.390;-99.256;2022-08-02T03:06:28;78260.06;;;23.83;46.35
20955;BME280;10636;19.390;-99.256;2022-08-02T03:08:58;78262.84;;;23.85;46.69
20955;BME280;10636;19.390;-99.256;2022-08-02T03:11:28;78268.19;;;23.85;46.85
20955;BME280;10636;19.390;-99.256;2022-08-02T03:13:58;78261.47;;;23.84;46.24
20955;BME280;10636;19.390;-99.256;2022-08-02T03:16:28;78277.53;;;23.84;46.41
20955;BME280;10636;19.390;-99.256;2022-08-02T03:18:57;78267.41;;;23.82;47.19
20955;BME280;10636;19.390;-99.256;2022-08-02T03:21:29;78266.72;;;23.82;46.51
20955;BME280;10636;19.390;-99.256;2022-08-02T03:23:57;78269.31;;;23.80;47.20
20955;BME280;10636;19.390;-99.256;2022-08-02T03:26:25;78278.03;;;23.80;47.20
20955;BME280;10636;19.390;-99.256;2022-08-02T03:28:54;78273.28;;;23.79;47.24
20955;BME280;10636;19.390;-99.256;2022-08-02T03:31:22;78275.84;;;23.77;46.52
20955;BME280;10636;19.390;-99.256;2022-08-02T03:33:53;78267.81;;;23.77;47.42
20955;BME280;10636;19.390;-99.256;2022-08-02T03:36:26;78275.16;;;23.76;46.64
20955;BME280;10636;19.390;-99.256;2022-08-02T03:38:56;78276.47;;;23.75;47.35
20955;BME280;10636;19.390;-99.256;2022-08-02T03:41:25;78277.16;;;23.76;47.02
20955;BME280;10636;19.390;-99.256;2022-08-02T03:43:55;78273.09;;;23.74;46.88
20955;BME280;10636;19.390;-99.256;2022-08-02T03:46:24;78272.41;;;23.74;47.01
20955;BME280;10636;19.390;-99.256;2022-08-02T03:48:54;78277.75;;;23.74;47.35
20955;BME280;10636;19.390;-99.256;2022-08-02T03:51:24;78263.47;;;23.69;47.21
20955;BME280;10636;19.390;-99.256;2022-08-02T03:53:53;78283.69;;;23.72;46.91
20955;BME280;10636;19.390;-99.256;2022-08-02T03:56:22;78282.31;;;23.71;47.29
20955;BME280;10636;19.390;-99.256;2022-08-02T03:59:05;78280.94;;;23.70;46.95
20955;BME280;10636;19.390;-99.256;2022-08-02T04:01:33;78283.69;;;23.72;47.00
20955;BME280;10636;19.390;-99.256;2022-08-02T04:04:04;78297.78;;;23.73;47.38
20955;BME280;10636;19.390;-99.256;2022-08-02T04:06:32;78295.69;;;23.71;47.14
20955;BME280;10636;19.390;-99.256;2022-08-02T04:09:01;78300.47;;;23.73;47.25
20955;BME280;10636;19.390;-99.256;2022-08-02T04:11:29;78300.97;;;23.69;47.25
20955;BME280;10636;19.390;-99.256;2022-08-02T04:13:59;78302.97;;;23.69;47.17
20955;BME280;10636;19.390;-99.256;2022-08-02T04:16:34;78306.31;;;23.69;47.06
20955;BME280;10636;19.390;-99.256;2022-08-02T04:19:09;78314.34;;;23.69;47.47
20955;BME280;10636;19.390;-99.256;2022-08-02T04:21:40;78304.94;;;23.68;47.03
20955;BME280;10636;19.390;-99.256;2022-08-02T04:24:09;78304.25;;;23.68;47.21
20955;BME280;10636;19.390;-99.256;2022-08-02T04:26:39;78298.91;;;23.68;47.05
20955;BME280;10636;19.390;-99.256;2022-08-02T04:29:11;78302.16;;;23.66;46.75
20955;BME280;10636;19.390;-99.256;2022-08-02T04:31:41;78305.44;;;23.65;47.54
20955;BME280;10636;19.390;-99.256;2022-08-02T04:34:11;78314.16;;;23.65;46.96
20955;BME280;10636;19.390;-99.256;2022-08-02T04:36:40;78314.53;;;23.60;47.04
20955;BME280;10636;19.390;-99.256;2022-08-02T04:39:09;78314.78;;;23.64;46.99
20955;BME280;10636;19.390;-99.256;2022-08-02T04:41:38;78319.44;;;23.63;46.92
20955;BME280;10636;19.390;-99.256;2022-08-02T04:44:07;78319.44;;;23.63;47.30
20955;BME280;10636;19.390;-99.256;2022-08-02T04:46:35;78315.47;;;23.64;46.98
20955;BME280;10636;19.390;-99.256;2022-08-02T04:49:06;78324.78;;;23.63;46.95
20955;BME280;10636;19.390;-99.256;2022-08-02T04:51:37;78323.38;;;23.62;47.50
20955;BME280;10636;19.390;-99.256;2022-08-02T04:54:06;78334.09;;;23.62;47.52
20955;BME280;10636;19.390;-99.256;2022-08-02T04:56:35;78338.03;;;23.61;47.25
20955;BME280;10636;19.390;-99.256;2022-08-02T04:59:04;78337.34;;;23.61;47.76
20955;BME280;10636;19.390;-99.256;2022-08-02T05:01:32;78342.69;;;23.61;47.48
20955;BME280;10636;19.390;-99.256;2022-08-02T05:04:01;78345.97;;;23.59;47.38
20955;BME280;10636;19.390;-99.256;2022-08-02T05:06:30;78331.00;;;23.54;47.24
20955;BME280;10636;19.390;-99.256;2022-08-02T05:09:00;78351.34;;;23.59;47.27
20955;BME280;10636;19.390;-99.256;2022-08-02T05:11:29;78345.28;;;23.59;47.05
20955;BME280;10636;19.390;-99.256;2022-08-02T05:13:57;78345.97;;;23.59;47.46
20955;BME280;10636;19.390;-99.256;2022-08-02T05:16:25;78352.03;;;23.60;48.02
20955;BME280;10636;19.390;-99.256;2022-08-02T05:18:54;78348.56;;;23.57;47.87
20955;BME280;10636;19.390;-99.256;2022-08-02T05:21:22;78352.03;;;23.60;47.20
20955;BME280;10636;19.390;-99.256;2022-08-02T05:23:51;78340.53;;;23.57;47.14
20955;BME280;10636;19.390;-99.256;2022-08-02T05:26:21;78345.97;;;23.59;47.93
20955;BME280;10636;19.390;-99.256;2022-08-02T05:28:49;78348.56;;;23.57;47.85
20955;BME280;10636;19.390;-99.256;2022-08-02T05:31:17;78351.25;;;23.57;47.31
20955;BME280;10636;19.390;-99.256;2022-08-02T05:33:46;78347.84;;;23.57;47.83
20955;BME280;10636;19.390;-99.256;2022-08-02T05:36:14;78353.22;;;23.57;47.43
20955;BME280;10636;19.390;-99.256;2022-08-02T05:38:43;78357.19;;;23.56;47.90
20955;BME280;10636;19.390;-99.256;2022-08-02T05:41:11;78361.75;;;23.53;47.74
20955;BME280;10636;19.390;-99.256;2022-08-02T05:43:41;78364.44;;;23.53;47.82
20955;BME280;10636;19.390;-99.256;2022-08-02T05:46:10;78364.44;;;23.53;48.00
20955;BME280;10636;19.390;-99.256;2022-08-02T05:48:38;78368.41;;;23.52;47.43
20955;BME280;10636;19.390;-99.256;2022-08-02T05:51:11;78375.03;;;23.51;47.75
20955;BME280;10636;19.390;-99.256;2022-08-02T05:53:45;78372.19;;;23.47;47.50
20955;BME280;10636;19.390;-99.256;2022-08-02T05:56:22;78383.06;;;23.51;48.20
20955;BME280;10636;19.390;-99.256;2022-08-02T05:58:58;78384.25;;;23.48;47.51
20955;BME280;10636;19.390;-99.256;2022-08-02T06:01:32;78378.91;;;23.48;48.04
20955;BME280;10636;19.390;-99.256;2022-08-02T06:04:04;78376.13;;;23.46;47.44
20955;BME280;10636;19.390;-99.256;2022-08-02T06:06:33;78369.50;;;23.47;47.82
20955;BME280;10636;19.390;-99.256;2022-08-02T06:09:03;78376.13;;;23.46;47.74
20955;BME280;10636;19.390;-99.256;2022-08-02T06:11:35;78359.47;;;23.34;48.02
20955;BME280;10636;19.390;-99.256;2022-08-02T06:14:06;78371.47;;;23.46;47.46
20955;BME280;10636;19.390;-99.256;2022-08-02T06:16:35;78363.44;;;23.46;47.97
20955;BME280;10636;19.390;-99.256;2022-08-02T06:19:03;78361.34;;;23.45;47.51
20955;BME280;10636;19.390;-99.256;2022-08-02T06:21:32;78351.94;;;23.44;47.37
20955;BME280;10636;19.390;-99.256;2022-08-02T06:24:02;78366.00;;;23.44;47.88
20955;BME280;10636;19.390;-99.256;2022-08-02T06:26:31;78376.13;;;23.46;48.00
20955;BME280;10636;19.390;-99.256;2022-08-02T06:29:01;78381.38;;;23.44;47.52
20955;BME280;10636;19.390;-99.256;2022-08-02T06:31:31;78372.66;;;23.43;47.92
20955;BME280;10636;19.390;-99.256;2022-08-02T06:34:00;78366.63;;;23.43;47.99
20955;BME280;10636;19.390;-99.256;2022-08-02T06:36:33;78370.59;;;23.42;48.31
20955;BME280;10636;19.390;-99.256;2022-08-02T06:39:07;78359.19;;;23.41;47.66
20955;BME280;10636;19.390;-99.256;2022-08-02T06:41:40;78365.94;;;23.42;48.09
20955;BME280;10636;19.390;-99.256;2022-08-02T06:44:09;78355.91;;;23.43;47.60
20955;BME280;10636;19.390;-99.256;2022-08-02T06:46:39;78353.84;;;23.41;48.31
20955;BME280;10636;19.390;-99.256;2022-08-02T06:49:07;78354.53;;;23.42;48.37
20955;BME280;10636;19.390;-99.256;2022-08-02T06:51:36;78343.81;;;23.42;47.83
20955;BME280;10636;19.390;-99.256;2022-08-02T06:54:05;78342.31;;;23.39;47.67
20955;BME280;10636;19.390;-99.256;2022-08-02T06:56:33;78330.94;;;23.38;47.73
20955;BME280;10636;19.390;-99.256;2022-08-02T06:59:01;78322.22;;;23.38;48.04
20955;BME280;10636;19.390;-99.256;2022-08-02T07:01:30;78322.22;;;23.38;47.65
20955;BME280;10636;19.390;-99.256;2022-08-02T07:04:00;78320.13;;;23.36;47.64
20955;BME280;10636;19.390;-99.256;2022-08-02T07:06:28;78324.06;;;23.35;47.96
20955;BME280;10636;19.390;-99.256;2022-08-02T07:08:57;78316.06;;;23.35;48.31
20955;BME280;10636;19.390;-99.256;2022-08-02T07:11:26;78315.34;;;23.35;47.69
20955;BME280;10636;19.390;-99.256;2022-08-02T07:13:54;78318.03;;;23.35;47.65
20955;BME280;10636;19.390;-99.256;2022-08-02T07:16:23;78309.91;;;23.33;48.15
20955;BME280;10636;19.390;-99.256;2022-08-02T07:18:51;78317.94;;;23.33;48.35
20955;BME280;10636;19.390;-99.256;2022-08-02T07:21:21;78316.66;;;23.34;47.70
20955;BME280;10636;19.390;-99.256;2022-08-02T07:23:49;78315.28;;;23.33;48.49
20955;BME280;10636;19.390;-99.256;2022-08-02T07:26:18;78311.31;;;23.34;47.57
20955;BME280;10636;19.390;-99.256;2022-08-02T07:28:46;78315.28;;;23.33;48.22
20955;BME280;10636;19.390;-99.256;2022-08-02T07:31:15;78305.84;;;23.32;48.13
20955;BME280;10636;19.390;-99.256;2022-08-02T07:33:43;78306.34;;;23.28;48.06
20955;BME280;10636;19.390;-99.256;2022-08-02T07:36:11;78318.56;;;23.31;48.16
20955;BME280;10636;19.390;-99.256;2022-08-02T07:38:41;78313.19;;;23.31;48.09
20955;BME280;10636;19.390;-99.256;2022-08-02T07:41:10;78313.78;;;23.30;48.12
20955;BME280;10636;19.390;-99.256;2022-08-02T07:43:38;78310.41;;;23.29;48.11
20955;BME280;10636;19.390;-99.256;2022-08-02T07:46:07;78308.34;;;23.28;47.63
20955;BME280;10636;19.390;-99.256;2022-08-02T07:48:35;78300.91;;;23.26;48.42
20955;BME280;10636;19.390;-99.256;2022-08-02T07:51:04;78299.50;;;23.25;47.98
20955;BME280;10636;19.390;-99.256;2022-08-02T07:53:32;78294.88;;;23.26;47.65
20955;BME280;10636;19.390;-99.256;2022-08-02T07:56:02;78288.09;;;23.25;47.61
20955;BME280;10636;19.390;-99.256;2022-08-02T07:58:30;78286.72;;;23.23;48.11
20955;BME280;10636;19.390;-99.256;2022-08-02T08:00:59;78287.41;;;23.24;48.55
20955;BME280;10636;19.390;-99.256;2022-08-02T08:03:27;78285.34;;;23.22;47.93
20955;BME280;10636;19.390;-99.256;2022-08-02T08:05:56;78273.94;;;23.22;47.99
20955;BME280;10636;19.390;-99.256;2022-08-02T08:08:24;78283.28;;;23.21;47.75
20955;BME280;10636;19.390;-99.256;2022-08-02T08:10:52;78265.13;;;23.19;48.43
20955;BME280;10636;19.390;-99.256;2022-08-02T08:13:22;78270.47;;;23.19;48.52
20955;BME280;10636;19.390;-99.256;2022-08-02T08:15:51;78263.75;;;23.18;48.42
20955;BME280;10636;19.390;-99.256;2022-08-02T08:18:20;78265.72;;;23.18;47.90
20955;BME280;10636;19.390;-99.256;2022-08-02T08:20:48;78262.34;;;23.17;48.27
20955;BME280;10636;19.390;-99.256;2022-08-02T08:23:17;78257.00;;;23.17;47.86
20955;BME280;10636;19.390;-99.256;2022-08-02T08:25:45;78258.31;;;23.16;47.97
20955;BME280;10636;19.390;-99.256;2022-08-02T08:28:14;78257.50;;;23.14;47.83
20955;BME280;10636;19.390;-99.256;2022-08-02T08:30:44;78267.50;;;23.13;47.80
20955;BME280;10636;19.390;-99.256;2022-08-02T08:33:12;78261.47;;;23.13;47.70
20955;BME280;10636;19.390;-99.256;2022-08-02T08:35:41;78263.44;;;23.12;48.32
20955;BME280;10636;19.390;-99.256;2022-08-02T08:38:10;78256.13;;;23.13;48.49
20955;BME280;10636;19.390;-99.256;2022-08-02T08:40:39;78256.81;;;23.13;48.29
20955;BME280;10636;19.390;-99.256;2022-08-02T08:43:07;78252.06;;;23.12;47.91
20955;BME280;10636;19.390;-99.256;2022-08-02T08:45:36;78245.41;;;23.13;48.49
20955;BME280;10636;19.390;-99.256;2022-08-02T08:48:10;78246.41;;;23.06;48.19
20955;BME280;10636;19.390;-99.256;2022-08-02T08:50:46;78251.97;;;23.10;47.73
20955;BME280;10636;19.390;-99.256;2022-08-02T08:53:17;78247.19;;;23.08;47.81
20955;BME280;10636;19.390;-99.256;2022-08-02T08:55:48;78249.88;;;23.08;47.62
20955;BME280;10636;19.390;-99.256;2022-08-02T08:58:18;78248.50;;;23.07;47.83
20955;BME280;10636;19.390;-99.256;2022-08-02T09:00:47;78245.72;;;23.05;48.51
20955;BME280;10636;19.390;-99.256;2022-08-02T09:03:17;78244.44;;;23.06;47.89
20955;BME280;10636;19.390;-99.256;2022-08-02T09:05:46;78238.41;;;23.06;48.45
20955;BME280;10636;19.390;-99.256;2022-08-02T09:08:14;78236.41;;;23.06;48.40
20955;BME280;10636;19.390;-99.256;2022-08-02T09:10:45;78241.75;;;23.06;47.72
20955;BME280;10636;19.390;-99.256;2022-08-02T09:13:17;78233.63;;;23.04;48.19
20955;BME280;10636;19.390;-99.256;2022-08-02T09:15:52;78238.97;;;23.04;47.81
20955;BME280;10636;19.390;-99.256;2022-08-02T09:18:28;78242.94;;;23.03;48.51
20955;BME280;10636;19.390;-99.256;2022-08-02T09:20:58;78236.31;;;23.04;48.31
20955;BME280;10636;19.390;-99.256;2022-08-02T09:23:34;78228.19;;;23.02;47.82
20955;BME280;10636;19.390;-99.256;2022-08-02T09:26:04;78226.72;;;22.99;48.06
20955;BME280;10636;19.390;-99.256;2022-08-02T09:28:35;78224.13;;;23.01;47.86
20955;BME280;10636;19.390;-99.256;2022-08-02T09:31:06;78234.84;;;23.01;48.27
20955;BME280;10636;19.390;-99.256;2022-08-02T09:33:37;78229.47;;;23.01;47.71
20955;BME280;10636;19.390;-99.256;2022-08-02T09:36:08;78227.41;;;23.00;48.42
20955;BME280;10636;19.390;-99.256;2022-08-02T09:38:38;78231.34;;;22.99;48.56
20955;BME280;10636;19.390;-99.256;2022-08-02T09:41:20;78223.94;;;22.97;48.15
20955;BME280;10636;19.390;-99.256;2022-08-02T09:43:48;78230.66;;;22.98;48.46
20955;BME280;10636;19.390;-99.256;2022-08-02T09:46:20;78239.97;;;22.97;48.44
20955;BME280;10636;19.390;-99.256;2022-08-02T09:48:53;78239.97;;;22.97;48.11
20955;BME280;10636;19.390;-99.256;2022-08-02T09:51:22;78245.31;;;22.97;48.45
20955;BME280;10636;19.390;-99.256;2022-08-02T09:53:53;78244.56;;;22.94;48.61
20955;BME280;10636;19.390;-99.256;2022-08-02T09:56:22;78255.25;;;22.94;48.28
20955;BME280;10636;19.390;-99.256;2022-08-02T09:58:51;78250.47;;;22.93;48.18
20955;BME280;10636;19.390;-99.256;2022-08-02T10:01:30;78257.13;;;22.92;48.00
20955;BME280;10636;19.390;-99.256;2022-08-02T10:04:01;78259.78;;;22.92;48.28
20955;BME280;10636;19.390;-99.256;2022-08-02T10:06:31;78263.75;;;22.91;47.83
20955;BME280;10636;19.390;-99.256;2022-08-02T10:09:00;78271.78;;;22.91;47.88
20955;BME280;10636;19.390;-99.256;2022-08-02T10:11:28;78269.81;;;22.91;47.75
20955;BME280;10636;19.390;-99.256;2022-08-02T10:13:57;78263.06;;;22.90;48.36
20955;BME280;10636;19.390;-99.256;2022-08-02T10:16:26;78271.78;;;22.91;47.58
20955;BME280;10636;19.390;-99.256;2022-08-02T10:18:55;78272.38;;;22.89;47.98
20955;BME280;10636;19.390;-99.256;2022-08-02T10:21:29;78277.03;;;22.89;48.35
20955;BME280;10636;19.390;-99.256;2022-08-02T10:24:04;78273.66;;;22.88;48.63
20955;BME280;10636;19.390;-99.256;2022-08-02T10:26:33;78285.63;;;22.87;47.63
20955;BME280;10636;19.390;-99.256;2022-08-02T10:29:02;78288.19;;;22.85;47.77
20955;BME280;10636;19.390;-99.256;2022-08-02T10:31:35;78284.94;;;22.87;48.64
20955;BME280;10636;19.390;-99.256;2022-08-02T10:34:07;78295.63;;;22.87;48.56
20955;BME280;10636;19.390;-99.256;2022-08-02T10:36:40;78282.25;;;22.87;47.92
20955;BME280;10636;19.390;-99.256;2022-08-02T10:39:09;78292.25;;;22.86;48.58
20955;BME280;10636;19.390;-99.256;2022-08-02T10:41:42;78296.91;;;22.86;48.40
20955;BME280;10636;19.390;-99.256;2022-08-02T10:44:22;78302.19;;;22.84;48.09
20955;BME280;10636;19.390;-99.256;2022-08-02T10:46:52;78306.22;;;22.85;48.11
20955;BME280;10636;19.390;-99.256;2022-08-02T10:49:21;78309.50;;;22.83;47.89
20955;BME280;10636;19.390;-99.256;2022-08-02T10:52:06;78313.44;;;22.82;48.08
20955;BME280;10636;19.390;-99.256;2022-08-02T10:54:36;78315.44;;;22.82;48.11
20955;BME280;10636;19.390;-99.256;2022-08-02T10:57:23;78314.03;;;22.81;48.22
20955;BME280;10636;19.390;-99.256;2022-08-02T10:59:54;78313.94;;;22.79;48.07
20955;BME280;10636;19.390;-99.256;2022-08-02T11:02:37;78320.09;;;22.81;48.30
20955;BME280;10636;19.390;-99.256;2022-08-02T11:05:14;78314.03;;;22.81;47.72
20955;BME280;10636;19.390;-99.256;2022-08-02T11:07:45;78319.41;;;22.81;48.59
20955;BME280;10636;19.390;-99.256;2022-08-02T11:10:35;78309.38;;;22.81;48.62
20955;BME280;10636;19.390;-99.256;2022-08-02T11:13:09;78315.44;;;22.82;47.57
20955;BME280;10636;19.390;-99.256;2022-08-02T11:15:53;78322.75;;;22.81;47.94
20955;BME280;10636;19.390;-99.256;2022-08-02T11:18:25;78306.13;;;22.83;48.16
20955;BME280;10636;19.390;-99.256;2022-08-02T11:21:21;78306.03;;;22.81;48.44
20955;BME280;10636;19.390;-99.256;2022-08-02T11:23:52;78304.63;;;22.80;47.99
20955;BME280;10636;19.390;-99.256;2022-08-02T11:26:42;78305.94;;;22.79;47.72
20955;BME280;10636;19.390;-99.256;2022-08-02T11:29:11;78299.19;;;22.78;48.09
20955;BME280;10636;19.390;-99.256;2022-08-02T11:31:41;78297.31;;;22.80;48.27
20955;BME280;10636;19.390;-99.256;2022-08-02T11:34:10;78290.56;;;22.79;48.49
20955;BME280;10636;19.390;-99.256;2022-08-02T11:36:46;78288.38;;;22.76;48.05
20955;BME280;10636;19.390;-99.256;2022-08-02T11:39:18;78284.44;;;22.77;48.16
20955;BME280;10636;19.390;-99.256;2022-08-02T11:41:50;78293.81;;;22.78;47.69
20955;BME280;10636;19.390;-99.256;2022-08-02T11:44:19;78295.81;;;22.77;48.10
20955;BME280;10636;19.390;-99.256;2022-08-02T11:46:55;78295.13;;;22.77;47.71
20955;BME280;10636;19.390;-99.256;2022-08-02T11:49:24;78297.09;;;22.76;47.88
20955;BME280;10636;19.390;-99.256;2022-08-02T11:51:57;78301.75;;;22.76;48.26
20955;BME280;10636;19.390;-99.256;2022-08-02T11:54:32;78301.75;;;22.76;48.52
20955;BME280;10636;19.390;-99.256;2022-08-02T11:57:15;78304.34;;;22.74;48.61
20955;BME280;10636;19.390;-99.256;2022-08-02T11:59:45;78309.69;;;22.74;48.13
20955;BME280;10636;19.390;-99.256;2022-08-02T12:02:15;78303.53;;;22.71;48.43
20955;BME280;10636;19.390;-99.256;2022-08-02T12:04:51;78315.81;;;22.76;48.11
20955;BME280;10636;19.390;-99.256;2022-08-02T12:07:25;78318.41;;;22.74;48.28
20955;BME280;10636;19.390;-99.256;2022-08-02T12:09:58;78320.38;;;22.74;48.34
20955;BME280;10636;19.390;-99.256;2022-08-02T12:12:27;78322.47;;;22.75;48.47
20955;BME280;10636;19.390;-99.256;2022-08-02T12:14:55;78327.13;;;22.75;47.87
20955;BME280;10636;19.390;-99.256;2022-08-02T12:17:24;78323.06;;;22.74;47.79
20955;BME280;10636;19.390;-99.256;2022-08-02T12:20:10;78327.00;;;22.73;47.70
20955;BME280;10636;19.390;-99.256;2022-08-02T12:22:39;78333.63;;;22.71;48.49
20955;BME280;10636;19.390;-99.256;2022-08-02T12:25:17;78334.94;;;22.70;47.77
20955;BME280;10636;19.390;-99.256;2022-08-02T12:27:47;78333.53;;;22.69;48.11
20955;BME280;10636;19.390;-99.256;2022-08-02T12:30:17;78333.63;;;22.71;47.85
20955;BME280;10636;19.390;-99.256;2022-08-02T12:32:46;78333.63;;;22.71;47.84
20955;BME280;10636;19.390;-99.256;2022-08-02T12:35:15;78344.34;;;22.71;48.20
20955;BME280;10636;19.390;-99.256;2022-08-02T12:37:47;78352.34;;;22.71;48.15
20955;BME280;10636;19.390;-99.256;2022-08-02T12:40:24;78354.34;;;22.71;48.58
20955;BME280;10636;19.390;-99.256;2022-08-02T12:42:55;78352.25;;;22.69;48.13
20955;BME280;10636;19.390;-99.256;2022-08-02T12:45:24;78355.03;;;22.71;47.85
20955;BME280;10636;19.390;-99.256;2022-08-02T12:47:55;78357.13;;;22.73;47.96
20955;BME280;10636;19.390;-99.256;2022-08-02T12:50:25;78360.38;;;22.71;48.41
20955;BME280;10636;19.390;-99.256;2022-08-02T12:53:03;78362.94;;;22.69;47.91
20955;BME280;10636;19.390;-99.256;2022-08-02T12:55:34;78363.16;;;22.74;47.93
20955;BME280;10636;19.390;-99.256;2022-08-02T12:58:06;78368.50;;;22.74;47.74
20955;BME280;10636;19.390;-99.256;2022-08-02T13:00:35;78362.16;;;22.67;47.72